sensor_id;sensor_type;location;lat;lon;timestamp;temperature;humidity
34099;DHT22;20374;49.474;10.944;2024-01-11T00:00:35;-5.00;99.90
34099;DHT22;20374;49.474;10.944;2024-01-11T00:03:01;-5.10;99.90
34099;DHT22;20374;49.474;10.944;2024-01-11T00:05:27;-5.10;99.90
34099;DHT22;20374;49.474;10.944;2024-01-11T00:07:53;-5.20;99.90
34099;DHT22;20374;49.474;10.944;2024-01-11T00:10:19;-5.20;99.90
34099;DHT22;20374;49.474;10.944;2024-01-11T00:12:46;-5.30;99.90
34099;DHT22;20374;49.474;10.944;2024-01-11T00:15:12;-5.30;99.90
34099;DHT22;20374;49.474;10.944;2024-01-11T00:17:38;-5.30;99.90
34099;DHT22;20374;49.474;10.944;2024-01-11T00:20:05;-5.40;99.90
34099;DHT22;20374;49.474;10.944;2024-01-11T00:22:31;-5.40;99.90
34099;DHT22;20374;49.474;10.944;2024-01-11T00:24:57;-5.50;99.90
34099;DHT22;20374;49.474;10.944;2024-01-11T00:27:23;-5.50;99.90
34099;DHT22;20374;49.474;10.944;2024-01-11T00:29:49;-5.50;99.90
34099;DHT22;20374;49.474;10.944;2024-01-11T00:32:15;-5.50;99.90
34099;DHT22;20374;49.474;10.944;2024-01-11T00:34:41;-5.50;99.90
34099;DHT22;20374;49.474;10.944;2024-01-11T00:37:07;-5.50;99.90
34099;DHT22;20374;49.474;10.944;2024-01-11T00:39:33;-5.50;99.90
34099;DHT22;20374;49.474;10.944;2024-01-11T00:41:59;-5.50;99.90
34099;DHT22;20374;49.474;10.944;2024-01-11T00:44:25;-5.50;99.90
34099;DHT22;20374;49.474;10.944;2024-01-11T00:46:51;-5.60;99.90
34099;DHT22;20374;49.474;10.944;2024-01-11T00:49:17;-5.60;99.90
34099;DHT22;20374;49.474;10.944;2024-01-11T00:51:42;-5.60;99.90
34099;DHT22;20374;49.474;10.944;2024-01-11T00:54:09;-5.70;99.90
34099;DHT22;20374;49.474;10.944;2024-01-11T00:56:34;-5.60;99.90
34099;DHT22;20374;49.474;10.944;2024-01-11T00:59:00;-5.70;99.90
34099;DHT22;20374;49.474;10.944;2024-01-11T01:01:26;-5.70;99.90
34099;DHT22;20374;49.474;10.944;2024-01-11T01:03:52;-5.80;99.90
34099;DHT22;20374;49.474;10.944;2024-01-11T01:06:18;-5.80;99.90
34099;DHT22;20374;49.474;10.944;2024-01-11T01:08:44;-5.80;99.90
34099;DHT22;20374;49.474;10.944;2024-01-11T01:11:10;-5.90;99.90
34099;DHT22;20374;49.474;10.944;2024-01-11T01:13:36;-5.90;99.90
34099;DHT22;20374;49.474;10.944;2024-01-11T01:16:01;-5.90;99.90
34099;DHT22;20374;49.474;10.944;2024-01-11T01:18:27;-5.90;99.90
34099;DHT22;20374;49.474;10.944;2024-01-11T01:20:53;-5.90;99.90
34099;DHT22;20374;49.474;10.944;2024-01-11T01:23:20;-6.00;99.90
34099;DHT22;20374;49.474;10.944;2024-01-11T01:25:46;-6.00;99.90
34099;DHT22;20374;49.474;10.944;2024-01-11T01:28:12;-5.90;99.90
34099;DHT22;20374;49.474;10.944;2024-01-11T01:30:37;-6.00;99.90
34099;DHT22;20374;49.474;10.944;2024-01-11T01:33:04;-6.00;99.90
34099;DHT22;20374;49.474;10.944;2024-01-11T01:35:29;-6.00;99.90
34099;DHT22;20374;49.474;10.944;2024-01-11T01:37:55;-6.00;99.90
34099;DHT22;20374;49.474;10.944;2024-01-11T01:40:21;-6.10;99.90
34099;DHT22;20374;49.474;10.944;2024-01-11T01:42:48;-6.10;99.90
34099;DHT22;20374;49.474;10.944;2024-01-11T01:45:15;-6.10;99.90
34099;DHT22;20374;49.474;10.944;2024-01-11T01:47:43;-6.10;99.90
34099;DHT22;20374;49.474;10.944;2024-01-11T01:50:10;-6.10;99.90
34099;DHT22;20374;49.474;10.944;2024-01-11T01:52:38;-6.10;99.90
34099;DHT22;20374;49.474;10.944;2024-01-11T01:55:06;-6.10;99.90
34099;DHT22;20374;49.474;10.944;2024-01-11T01:57:35;-6.10;99.90
34099;DHT22;20374;49.474;10.944;2024-01-11T02:00:02;-6.10;99.90
34099;DHT22;20374;49.474;10.944;2024-01-11T02:02:38;-6.10;99.90
34099;DHT22;20374;49.474;10.944;2024-01-11T02:05:06;-6.20;99.90
34099;DHT22;20374;49.474;10.944;2024-01-11T02:07:32;-6.20;99.90
34099;DHT22;20374;49.474;10.944;2024-01-11T02:09:58;-6.20;99.90
34099;DHT22;20374;49.474;10.944;2024-01-11T02:12:25;-6.20;99.90
34099;DHT22;20374;49.474;10.944;2024-01-11T02:14:53;-6.20;99.90
34099;DHT22;20374;49.474;10.944;2024-01-11T02:17:19;-6.30;99.90
34099;DHT22;20374;49.474;10.944;2024-01-11T02:19:46;-6.30;99.90
34099;DHT22;20374;49.474;10.944;2024-01-11T02:22:29;-6.30;99.90
34099;DHT22;20374;49.474;10.944;2024-01-11T02:24:56;-6.30;99.90
34099;DHT22;20374;49.474;10.944;2024-01-11T02:27:23;-6.40;99.90
34099;DHT22;20374;49.474;10.944;2024-01-11T02:29:49;-6.40;99.90
34099;DHT22;20374;49.474;10.944;2024-01-11T02:32:15;-6.40;99.90
34099;DHT22;20374;49.474;10.944;2024-01-11T02:34:41;-6.40;99.90
34099;DHT22;20374;49.474;10.944;2024-01-11T02:37:08;-6.40;99.90
34099;DHT22;20374;49.474;10.944;2024-01-11T02:39:33;-6.50;99.90
34099;DHT22;20374;49.474;10.944;2024-01-11T02:42:00;-6.50;99.90
34099;DHT22;20374;49.474;10.944;2024-01-11T02:44:26;-6.50;99.90
34099;DHT22;20374;49.474;10.944;2024-01-11T02:46:52;-6.50;99.90
34099;DHT22;20374;49.474;10.944;2024-01-11T02:49:18;-6.60;99.90
34099;DHT22;20374;49.474;10.944;2024-01-11T02:51:44;-6.60;99.90
34099;DHT22;20374;49.474;10.944;2024-01-11T02:54:10;-6.60;99.90
34099;DHT22;20374;49.474;10.944;2024-01-11T02:56:36;-6.60;99.90
34099;DHT22;20374;49.474;10.944;2024-01-11T02:59:02;-6.60;99.90
34099;DHT22;20374;49.474;10.944;2024-01-11T03:01:28;-6.60;99.90
34099;DHT22;20374;49.474;10.944;2024-01-11T03:03:54;-6.70;99.90
34099;DHT22;20374;49.474;10.944;2024-01-11T03:06:20;-6.70;99.90
34099;DHT22;20374;49.474;10.944;2024-01-11T03:08:49;-6.70;99.90
34099;DHT22;20374;49.474;10.944;2024-01-11T03:11:15;-6.70;99.90
34099;DHT22;20374;49.474;10.944;2024-01-11T03:13:42;-6.70;99.90
34099;DHT22;20374;49.474;10.944;2024-01-11T03:16:08;-6.70;99.90
34099;DHT22;20374;49.474;10.944;2024-01-11T03:18:34;-6.70;99.90
34099;DHT22;20374;49.474;10.944;2024-01-11T03:20:59;-6.70;99.90
34099;DHT22;20374;49.474;10.944;2024-01-11T03:23:25;-6.70;99.90
34099;DHT22;20374;49.474;10.944;2024-01-11T03:25:51;-6.70;99.90
34099;DHT22;20374;49.474;10.944;2024-01-11T03:28:17;-6.80;99.90
34099;DHT22;20374;49.474;10.944;2024-01-11T03:30:43;-6.80;99.90
34099;DHT22;20374;49.474;10.944;2024-01-11T03:33:09;-6.80;99.90
34099;DHT22;20374;49.474;10.944;2024-01-11T03:35:35;-6.80;99.90
34099;DHT22;20374;49.474;10.944;2024-01-11T03:38:04;-6.80;99.90
34099;DHT22;20374;49.474;10.944;2024-01-11T03:40:31;-6.90;99.90
34099;DHT22;20374;49.474;10.944;2024-01-11T03:42:57;-6.90;99.90
34099;DHT22;20374;49.474;10.944;2024-01-11T03:45:22;-6.90;99.90
34099;DHT22;20374;49.474;10.944;2024-01-11T03:47:48;-6.90;99.90
34099;DHT22;20374;49.474;10.944;2024-01-11T03:50:14;-6.90;99.90
34099;DHT22;20374;49.474;10.944;2024-01-11T03:52:40;-6.90;99.90
34099;DHT22;20374;49.474;10.944;2024-01-11T03:55:06;-6.90;99.90
34099;DHT22;20374;49.474;10.944;2024-01-11T03:57:32;-7.00;99.90
34099;DHT22;20374;49.474;10.944;2024-01-11T03:59:58;-7.00;99.90
34099;DHT22;20374;49.474;10.944;2024-01-11T04:02:25;-7.00;99.90
34099;DHT22;20374;49.474;10.944;2024-01-11T04:04:51;-7.10;99.90
34099;DHT22;20374;49.474;10.944;2024-01-11T04:07:16;-7.00;99.90
34099;DHT22;20374;49.474;10.944;2024-01-11T04:09:42;-6.90;99.90
34099;DHT22;20374;49.474;10.944;2024-01-11T04:12:08;-7.00;99.90
34099;DHT22;20374;49.474;10.944;2024-01-11T04:14:38;-7.00;99.90
34099;DHT22;20374;49.474;10.944;2024-01-11T04:17:05;-7.00;99.90
34099;DHT22;20374;49.474;10.944;2024-01-11T04:19:31;-7.00;99.90
34099;DHT22;20374;49.474;10.944;2024-01-11T04:21:57;-7.10;99.90
34099;DHT22;20374;49.474;10.944;2024-01-11T04:24:23;-7.10;99.90
34099;DHT22;20374;49.474;10.944;2024-01-11T04:26:49;-7.10;99.90
34099;DHT22;20374;49.474;10.944;2024-01-11T04:29:15;-7.10;99.90
34099;DHT22;20374;49.474;10.944;2024-01-11T04:31:40;-7.10;99.90
34099;DHT22;20374;49.474;10.944;2024-01-11T04:34:06;-7.10;99.90
34099;DHT22;20374;49.474;10.944;2024-01-11T04:36:33;-7.10;99.90
34099;DHT22;20374;49.474;10.944;2024-01-11T04:38:58;-7.10;99.90
34099;DHT22;20374;49.474;10.944;2024-01-11T04:41:24;-7.00;99.90
34099;DHT22;20374;49.474;10.944;2024-01-11T04:43:50;-7.00;99.90
34099;DHT22;20374;49.474;10.944;2024-01-11T04:46:18;-7.00;99.90
34099;DHT22;20374;49.474;10.944;2024-01-11T04:48:44;-7.00;99.90
34099;DHT22;20374;49.474;10.944;2024-01-11T04:51:11;-7.10;99.90
34099;DHT22;20374;49.474;10.944;2024-01-11T04:53:40;-7.10;99.90
34099;DHT22;20374;49.474;10.944;2024-01-11T04:56:08;-7.00;99.90
34099;DHT22;20374;49.474;10.944;2024-01-11T04:58:35;-7.00;99.90
34099;DHT22;20374;49.474;10.944;2024-01-11T05:01:01;-7.00;99.90
34099;DHT22;20374;49.474;10.944;2024-01-11T05:03:28;-7.10;99.90
34099;DHT22;20374;49.474;10.944;2024-01-11T05:05:53;-7.20;99.90
34099;DHT22;20374;49.474;10.944;2024-01-11T05:08:19;-7.30;99.90
34099;DHT22;20374;49.474;10.944;2024-01-11T05:10:45;-7.40;99.90
34099;DHT22;20374;49.474;10.944;2024-01-11T05:13:11;-7.40;99.90
34099;DHT22;20374;49.474;10.944;2024-01-11T05:15:37;-7.40;99.90
34099;DHT22;20374;49.474;10.944;2024-01-11T05:18:03;-7.40;99.90
34099;DHT22;20374;49.474;10.944;2024-01-11T05:20:29;-7.40;99.90
34099;DHT22;20374;49.474;10.944;2024-01-11T05:22:55;-7.40;99.90
34099;DHT22;20374;49.474;10.944;2024-01-11T05:25:21;-7.40;99.90
34099;DHT22;20374;49.474;10.944;2024-01-11T05:27:47;-7.50;99.90
34099;DHT22;20374;49.474;10.944;2024-01-11T05:30:13;-7.40;99.90
34099;DHT22;20374;49.474;10.944;2024-01-11T05:32:40;-7.50;99.90
34099;DHT22;20374;49.474;10.944;2024-01-11T05:35:06;-7.50;99.90
34099;DHT22;20374;49.474;10.944;2024-01-11T05:37:32;-7.50;99.90
34099;DHT22;20374;49.474;10.944;2024-01-11T05:39:57;-7.50;99.90
34099;DHT22;20374;49.474;10.944;2024-01-11T05:42:23;-7.50;99.90
34099;DHT22;20374;49.474;10.944;2024-01-11T05:44:51;-7.50;99.90
34099;DHT22;20374;49.474;10.944;2024-01-11T05:47:17;-7.60;99.90
34099;DHT22;20374;49.474;10.944;2024-01-11T05:49:43;-7.60;99.90
34099;DHT22;20374;49.474;10.944;2024-01-11T05:52:09;-7.60;99.90
34099;DHT22;20374;49.474;10.944;2024-01-11T05:54:34;-7.60;99.90
34099;DHT22;20374;49.474;10.944;2024-01-11T05:57:01;-7.60;99.90
34099;DHT22;20374;49.474;10.944;2024-01-11T05:59:26;-7.60;99.90
34099;DHT22;20374;49.474;10.944;2024-01-11T06:01:52;-7.60;99.90
34099;DHT22;20374;49.474;10.944;2024-01-11T06:04:18;-7.50;99.90
34099;DHT22;20374;49.474;10.944;2024-01-11T06:06:44;-7.50;99.90
34099;DHT22;20374;49.474;10.944;2024-01-11T06:09:10;-7.50;99.90
34099;DHT22;20374;49.474;10.944;2024-01-11T06:11:36;-7.50;99.90
34099;DHT22;20374;49.474;10.944;2024-01-11T06:14:02;-7.50;99.90
34099;DHT22;20374;49.474;10.944;2024-01-11T06:16:28;-7.60;99.90
34099;DHT22;20374;49.474;10.944;2024-01-11T06:18:54;-7.60;99.90
34099;DHT22;20374;49.474;10.944;2024-01-11T06:21:20;-7.70;99.90
34099;DHT22;20374;49.474;10.944;2024-01-11T06:23:46;-7.70;99.90
34099;DHT22;20374;49.474;10.944;2024-01-11T06:26:12;-7.70;99.90
34099;DHT22;20374;49.474;10.944;2024-01-11T06:28:38;-7.70;99.90
34099;DHT22;20374;49.474;10.944;2024-01-11T06:31:04;-7.70;99.90
34099;DHT22;20374;49.474;10.944;2024-01-11T06:33:29;-7.70;99.90
34099;DHT22;20374;49.474;10.944;2024-01-11T06:35:56;-7.80;99.90
34099;DHT22;20374;49.474;10.944;2024-01-11T06:38:21;-7.80;99.90
34099;DHT22;20374;49.474;10.944;2024-01-11T06:40:50;-7.80;99.90
34099;DHT22;20374;49.474;10.944;2024-01-11T06:43:16;-7.80;99.90
34099;DHT22;20374;49.474;10.944;2024-01-11T06:45:43;-7.70;99.90
34099;DHT22;20374;49.474;10.944;2024-01-11T06:48:08;-7.70;99.90
34099;DHT22;20374;49.474;10.944;2024-01-11T06:50:34;-7.60;99.90
34099;DHT22;20374;49.474;10.944;2024-01-11T06:53:01;-7.60;99.90
34099;DHT22;20374;49.474;10.944;2024-01-11T06:55:27;-7.70;99.90
34099;DHT22;20374;49.474;10.944;2024-01-11T06:57:53;-7.70;99.90
34099;DHT22;20374;49.474;10.944;2024-01-11T07:00:19;-7.70;99.90
34099;DHT22;20374;49.474;10.944;2024-01-11T07:02:47;-7.80;99.90
34099;DHT22;20374;49.474;10.944;2024-01-11T07:05:13;-7.70;99.90
34099;DHT22;20374;49.474;10.944;2024-01-11T07:07:39;-7.70;99.90
34099;DHT22;20374;49.474;10.944;2024-01-11T07:10:05;-7.70;99.90
34099;DHT22;20374;49.474;10.944;2024-01-11T07:12:31;-7.60;99.90
34099;DHT22;20374;49.474;10.944;2024-01-11T07:14:58;-7.70;99.90
34099;DHT22;20374;49.474;10.944;2024-01-11T07:17:24;-7.70;99.90
34099;DHT22;20374;49.474;10.944;2024-01-11T07:19:50;-7.70;99.90
34099;DHT22;20374;49.474;10.944;2024-01-11T07:22:16;-7.70;99.90
34099;DHT22;20374;49.474;10.944;2024-01-11T07:24:43;-7.70;99.90
34099;DHT22;20374;49.474;10.944;2024-01-11T07:27:08;-7.60;99.90
34099;DHT22;20374;49.474;10.944;2024-01-11T07:29:34;-7.60;99.90
34099;DHT22;20374;49.474;10.944;2024-01-11T07:32:01;-7.50;99.90
34099;DHT22;20374;49.474;10.944;2024-01-11T07:34:27;-7.40;99.90
34099;DHT22;20374;49.474;10.944;2024-01-11T07:36:53;-7.40;99.90
34099;DHT22;20374;49.474;10.944;2024-01-11T07:39:19;-7.40;99.90
34099;DHT22;20374;49.474;10.944;2024-01-11T07:41:45;-7.40;99.90
34099;DHT22;20374;49.474;10.944;2024-01-11T07:44:12;-7.30;99.90
34099;DHT22;20374;49.474;10.944;2024-01-11T07:46:38;-7.20;99.90
34099;DHT22;20374;49.474;10.944;2024-01-11T07:49:04;-7.40;99.90
34099;DHT22;20374;49.474;10.944;2024-01-11T07:51:30;-7.20;99.90
34099;DHT22;20374;49.474;10.944;2024-01-11T07:53:56;-7.10;99.90
34099;DHT22;20374;49.474;10.944;2024-01-11T07:56:22;-7.10;99.90
34099;DHT22;20374;49.474;10.944;2024-01-11T07:58:48;-6.80;99.90
34099;DHT22;20374;49.474;10.944;2024-01-11T08:01:15;-6.50;99.90
34099;DHT22;20374;49.474;10.944;2024-01-11T08:03:41;-6.20;99.90
34099;DHT22;20374;49.474;10.944;2024-01-11T08:06:10;-6.10;99.90
34099;DHT22;20374;49.474;10.944;2024-01-11T08:08:37;-6.10;99.90
34099;DHT22;20374;49.474;10.944;2024-01-11T08:11:06;-6.10;99.90
34099;DHT22;20374;49.474;10.944;2024-01-11T08:13:33;-6.10;99.90
34099;DHT22;20374;49.474;10.944;2024-01-11T08:16:03;-6.10;99.90
34099;DHT22;20374;49.474;10.944;2024-01-11T08:18:31;-6.10;99.90
34099;DHT22;20374;49.474;10.944;2024-01-11T08:20:56;-6.20;99.90
34099;DHT22;20374;49.474;10.944;2024-01-11T08:23:22;-6.10;99.90
34099;DHT22;20374;49.474;10.944;2024-01-11T08:25:49;-6.00;99.90
34099;DHT22;20374;49.474;10.944;2024-01-11T08:28:15;-5.80;99.90
34099;DHT22;20374;49.474;10.944;2024-01-11T08:30:41;-5.60;99.90
34099;DHT22;20374;49.474;10.944;2024-01-11T08:33:08;-5.50;99.90
34099;DHT22;20374;49.474;10.944;2024-01-11T08:35:34;-5.40;99.90
34099;DHT22;20374;49.474;10.944;2024-01-11T08:38:01;-5.20;99.90
34099;DHT22;20374;49.474;10.944;2024-01-11T08:40:28;-5.10;99.90
34099;DHT22;20374;49.474;10.944;2024-01-11T08:42:54;-5.00;99.90
34099;DHT22;20374;49.474;10.944;2024-01-11T08:45:20;-5.00;99.90
34099;DHT22;20374;49.474;10.944;2024-01-11T08:47:48;-5.00;99.90
34099;DHT22;20374;49.474;10.944;2024-01-11T08:50:14;-4.90;99.90
34099;DHT22;20374;49.474;10.944;2024-01-11T08:52:43;-5.00;99.90
34099;DHT22;20374;49.474;10.944;2024-01-11T08:55:12;-5.00;99.90
34099;DHT22;20374;49.474;10.944;2024-01-11T08:57:38;-4.90;99.90
34099;DHT22;20374;49.474;10.944;2024-01-11T09:00:05;-4.90;99.90
34099;DHT22;20374;49.474;10.944;2024-01-11T09:02:34;-4.90;99.90
34099;DHT22;20374;49.474;10.944;2024-01-11T09:05:01;-4.90;99.90
34099;DHT22;20374;49.474;10.944;2024-01-11T09:07:27;-4.80;99.90
34099;DHT22;20374;49.474;10.944;2024-01-11T09:09:53;-4.70;99.90
34099;DHT22;20374;49.474;10.944;2024-01-11T09:12:20;-4.50;99.90
34099;DHT22;20374;49.474;10.944;2024-01-11T09:14:46;-4.10;99.90
34099;DHT22;20374;49.474;10.944;2024-01-11T09:17:12;-3.60;99.90
34099;DHT22;20374;49.474;10.944;2024-01-11T09:19:37;-3.10;99.90
34099;DHT22;20374;49.474;10.944;2024-01-11T09:22:05;-2.40;99.90
34099;DHT22;20374;49.474;10.944;2024-01-11T09:24:31;-1.90;99.90
34099;DHT22;20374;49.474;10.944;2024-01-11T09:26:57;-1.40;99.90
34099;DHT22;20374;49.474;10.944;2024-01-11T09:29:23;-1.50;99.90
34099;DHT22;20374;49.474;10.944;2024-01-11T09:31:49;-1.90;99.90
34099;DHT22;20374;49.474;10.944;2024-01-11T09:34:15;-2.30;99.90
34099;DHT22;20374;49.474;10.944;2024-01-11T09:36:41;-2.70;99.90
34099;DHT22;20374;49.474;10.944;2024-01-11T09:39:07;-2.80;99.90
34099;DHT22;20374;49.474;10.944;2024-01-11T09:41:36;-2.60;99.90
34099;DHT22;20374;49.474;10.944;2024-01-11T09:44:04;-2.10;99.90
34099;DHT22;20374;49.474;10.944;2024-01-11T09:46:31;-1.20;99.90
34099;DHT22;20374;49.474;10.944;2024-01-11T09:48:58;-0.50;99.90
34099;DHT22;20374;49.474;10.944;2024-01-11T09:51:26;0.00;99.90
34099;DHT22;20374;49.474;10.944;2024-01-11T09:53:55;0.10;99.90
34099;DHT22;20374;49.474;10.944;2024-01-11T09:56:22;-0.20;99.90
34099;DHT22;20374;49.474;10.944;2024-01-11T09:58:50;-0.50;99.90
34099;DHT22;20374;49.474;10.944;2024-01-11T10:01:16;-0.90;99.90
34099;DHT22;20374;49.474;10.944;2024-01-11T10:03:43;-1.00;99.90
34099;DHT22;20374;49.474;10.944;2024-01-11T10:06:10;-1.00;99.90
34099;DHT22;20374;49.474;10.944;2024-01-11T10:08:36;-1.10;99.90
34099;DHT22;20374;49.474;10.944;2024-01-11T10:11:03;-1.40;99.90
34099;DHT22;20374;49.474;10.944;2024-01-11T10:13:30;-1.80;99.90
34099;DHT22;20374;49.474;10.944;2024-01-11T10:16:09;-2.00;99.90
34099;DHT22;20374;49.474;10.944;2024-01-11T10:18:36;-2.20;99.90
34099;DHT22;20374;49.474;10.944;2024-01-11T10:21:03;-2.40;99.90
34099;DHT22;20374;49.474;10.944;2024-01-11T10:23:29;-2.40;99.90
34099;DHT22;20374;49.474;10.944;2024-01-11T10:25:58;-2.50;99.90
34099;DHT22;20374;49.474;10.944;2024-01-11T10:28:25;-2.60;99.90
34099;DHT22;20374;49.474;10.944;2024-01-11T10:30:52;-2.60;99.90
34099;DHT22;20374;49.474;10.944;2024-01-11T10:33:22;-2.60;99.90
34099;DHT22;20374;49.474;10.944;2024-01-11T10:35:49;-2.70;99.90
34099;DHT22;20374;49.474;10.944;2024-01-11T10:38:15;-2.60;99.90
34099;DHT22;20374;49.474;10.944;2024-01-11T10:40:42;-2.60;99.90
34099;DHT22;20374;49.474;10.944;2024-01-11T10:43:12;-2.50;99.90
34099;DHT22;20374;49.474;10.944;2024-01-11T10:45:41;-2.20;99.90
34099;DHT22;20374;49.474;10.944;2024-01-11T10:48:13;-1.90;99.90
34099;DHT22;20374;49.474;10.944;2024-01-11T10:50:45;-1.80;99.90
34099;DHT22;20374;49.474;10.944;2024-01-11T10:56:03;-2.00;99.90
34099;DHT22;20374;49.474;10.944;2024-01-11T10:58:31;-2.10;99.90
34099;DHT22;20374;49.474;10.944;2024-01-11T11:00:59;-2.20;99.90
34099;DHT22;20374;49.474;10.944;2024-01-11T11:03:26;-2.30;99.90
34099;DHT22;20374;49.474;10.944;2024-01-11T11:05:54;-2.40;99.90
34099;DHT22;20374;49.474;10.944;2024-01-11T11:08:23;-2.40;99.90
34099;DHT22;20374;49.474;10.944;2024-01-11T11:10:56;-2.50;99.90
34099;DHT22;20374;49.474;10.944;2024-01-11T11:13:23;-2.50;99.90
34099;DHT22;20374;49.474;10.944;2024-01-11T11:15:50;-2.40;99.90
34099;DHT22;20374;49.474;10.944;2024-01-11T11:18:16;-2.40;99.90
34099;DHT22;20374;49.474;10.944;2024-01-11T11:20:44;-2.40;99.90
34099;DHT22;20374;49.474;10.944;2024-01-11T11:23:13;-2.40;99.90
34099;DHT22;20374;49.474;10.944;2024-01-11T11:25:40;-2.30;99.90
34099;DHT22;20374;49.474;10.944;2024-01-11T11:28:07;-2.10;99.90
34099;DHT22;20374;49.474;10.944;2024-01-11T11:30:37;-1.80;99.90
34099;DHT22;20374;49.474;10.944;2024-01-11T11:33:10;-1.30;99.90
34099;DHT22;20374;49.474;10.944;2024-01-11T11:35:36;-0.60;99.90
34099;DHT22;20374;49.474;10.944;2024-01-11T11:38:02;0.60;99.90
34099;DHT22;20374;49.474;10.944;2024-01-11T11:40:39;2.50;99.90
34099;DHT22;20374;49.474;10.944;2024-01-11T11:53:22;7.20;87.20
34099;DHT22;20374;49.474;10.944;2024-01-11T11:59:31;7.60;81.40
34099;DHT22;20374;49.474;10.944;2024-01-11T12:09:17;7.30;77.20
34099;DHT22;20374;49.474;10.944;2024-01-11T12:12:30;6.40;78.80
34099;DHT22;20374;49.474;10.944;2024-01-11T12:15:27;5.50;83.30
34099;DHT22;20374;49.474;10.944;2024-01-11T12:25:07;6.90;80.20
34099;DHT22;20374;49.474;10.944;2024-01-11T12:27:59;7.90;80.60
34099;DHT22;20374;49.474;10.944;2024-01-11T12:30:26;8.90;75.20
34099;DHT22;20374;49.474;10.944;2024-01-11T12:33:30;9.30;73.30
34099;DHT22;20374;49.474;10.944;2024-01-11T12:36:40;9.30;69.70
34099;DHT22;20374;49.474;10.944;2024-01-11T12:39:46;9.30;69.00
34099;DHT22;20374;49.474;10.944;2024-01-11T12:42:35;8.40;69.80
34099;DHT22;20374;49.474;10.944;2024-01-11T12:45:01;8.20;69.30
34099;DHT22;20374;49.474;10.944;2024-01-11T12:47:48;8.10;69.10
34099;DHT22;20374;49.474;10.944;2024-01-11T12:51:39;8.80;71.10
34099;DHT22;20374;49.474;10.944;2024-01-11T12:54:15;9.60;68.20
34099;DHT22;20374;49.474;10.944;2024-01-11T12:56:45;10.30;66.10
34099;DHT22;20374;49.474;10.944;2024-01-11T12:59:12;10.80;64.40
34099;DHT22;20374;49.474;10.944;2024-01-11T13:01:38;11.00;62.80
34099;DHT22;20374;49.474;10.944;2024-01-11T13:07:33;10.00;63.10
34099;DHT22;20374;49.474;10.944;2024-01-11T13:10:03;9.60;63.20
34099;DHT22;20374;49.474;10.944;2024-01-11T13:12:55;9.70;65.10
34099;DHT22;20374;49.474;10.944;2024-01-11T13:15:22;9.70;64.60
34099;DHT22;20374;49.474;10.944;2024-01-11T13:18:09;9.50;64.80
34099;DHT22;20374;49.474;10.944;2024-01-11T13:20:45;10.10;63.50
34099;DHT22;20374;49.474;10.944;2024-01-11T13:23:14;10.60;62.40
34099;DHT22;20374;49.474;10.944;2024-01-11T13:25:41;10.10;60.60
34099;DHT22;20374;49.474;10.944;2024-01-11T13:28:20;9.80;63.40
34099;DHT22;20374;49.474;10.944;2024-01-11T13:30:47;9.40;63.40
34099;DHT22;20374;49.474;10.944;2024-01-11T13:36:53;9.40;65.20
34099;DHT22;20374;49.474;10.944;2024-01-11T13:39:19;9.30;61.80
34099;DHT22;20374;49.474;10.944;2024-01-11T13:42:19;7.80;62.60
34099;DHT22;20374;49.474;10.944;2024-01-11T13:49:24;4.50;70.90
34099;DHT22;20374;49.474;10.944;2024-01-11T13:51:35;3.50;74.60
34099;DHT22;20374;49.474;10.944;2024-01-11T13:54:01;2.70;76.90
34099;DHT22;20374;49.474;10.944;2024-01-11T13:56:27;2.20;79.70
34099;DHT22;20374;49.474;10.944;2024-01-11T13:58:54;1.90;81.30
34099;DHT22;20374;49.474;10.944;2024-01-11T14:01:19;1.70;82.80
34099;DHT22;20374;49.474;10.944;2024-01-11T14:03:45;1.70;82.70
34099;DHT22;20374;49.474;10.944;2024-01-11T14:06:11;1.60;85.30
34099;DHT22;20374;49.474;10.944;2024-01-11T14:08:38;1.50;85.90
34099;DHT22;20374;49.474;10.944;2024-01-11T14:11:07;1.50;86.80
34099;DHT22;20374;49.474;10.944;2024-01-11T14:13:33;1.40;86.60
34099;DHT22;20374;49.474;10.944;2024-01-11T14:15:59;1.30;88.00
34099;DHT22;20374;49.474;10.944;2024-01-11T14:18:26;1.10;89.10
34099;DHT22;20374;49.474;10.944;2024-01-11T14:20:51;0.90;91.00
34099;DHT22;20374;49.474;10.944;2024-01-11T14:23:17;0.80;91.80
34099;DHT22;20374;49.474;10.944;2024-01-11T14:25:43;0.70;92.00
34099;DHT22;20374;49.474;10.944;2024-01-11T14:28:09;0.80;92.50
34099;DHT22;20374;49.474;10.944;2024-01-11T14:30:35;0.80;92.70
34099;DHT22;20374;49.474;10.944;2024-01-11T14:33:01;0.80;92.90
34099;DHT22;20374;49.474;10.944;2024-01-11T14:35:27;0.60;92.80
34099;DHT22;20374;49.474;10.944;2024-01-11T14:37:53;0.60;93.10
34099;DHT22;20374;49.474;10.944;2024-01-11T14:40:19;0.50;93.30
34099;DHT22;20374;49.474;10.944;2024-01-11T14:42:45;0.50;93.40
34099;DHT22;20374;49.474;10.944;2024-01-11T14:45:11;0.50;93.80
34099;DHT22;20374;49.474;10.944;2024-01-11T14:47:38;0.40;93.90
34099;DHT22;20374;49.474;10.944;2024-01-11T14:50:04;0.40;94.50
34099;DHT22;20374;49.474;10.944;2024-01-11T14:52:30;0.30;94.60
34099;DHT22;20374;49.474;10.944;2024-01-11T14:54:59;0.30;94.70
34099;DHT22;20374;49.474;10.944;2024-01-11T14:57:25;0.20;95.20
34099;DHT22;20374;49.474;10.944;2024-01-11T14:59:51;0.20;95.40
34099;DHT22;20374;49.474;10.944;2024-01-11T15:02:16;0.10;95.40
34099;DHT22;20374;49.474;10.944;2024-01-11T15:04:42;0.10;95.10
34099;DHT22;20374;49.474;10.944;2024-01-11T15:07:08;0.00;95.20
34099;DHT22;20374;49.474;10.944;2024-01-11T15:09:35;0.00;95.40
34099;DHT22;20374;49.474;10.944;2024-01-11T15:12:01;-0.10;95.50
34099;DHT22;20374;49.474;10.944;2024-01-11T15:14:27;-0.10;95.70
34099;DHT22;20374;49.474;10.944;2024-01-11T15:16:53;-0.20;95.90
34099;DHT22;20374;49.474;10.944;2024-01-11T15:19:19;-0.20;96.30
34099;DHT22;20374;49.474;10.944;2024-01-11T15:21:45;-0.30;96.60
34099;DHT22;20374;49.474;10.944;2024-01-11T15:24:11;-0.30;97.00
34099;DHT22;20374;49.474;10.944;2024-01-11T15:26:38;-0.40;97.20
34099;DHT22;20374;49.474;10.944;2024-01-11T15:29:04;-0.40;97.80
34099;DHT22;20374;49.474;10.944;2024-01-11T15:31:29;-0.50;98.30
34099;DHT22;20374;49.474;10.944;2024-01-11T15:33:56;-0.50;98.20
34099;DHT22;20374;49.474;10.944;2024-01-11T15:36:21;-0.50;98.20
34099;DHT22;20374;49.474;10.944;2024-01-11T15:38:48;-0.60;98.30
34099;DHT22;20374;49.474;10.944;2024-01-11T15:41:15;-0.70;98.40
34099;DHT22;20374;49.474;10.944;2024-01-11T15:43:41;-0.80;98.70
34099;DHT22;20374;49.474;10.944;2024-01-11T15:46:08;-0.80;99.40
34099;DHT22;20374;49.474;10.944;2024-01-11T15:48:33;-1.00;99.90
34099;DHT22;20374;49.474;10.944;2024-01-11T15:50:59;-1.00;99.90
34099;DHT22;20374;49.474;10.944;2024-01-11T15:53:26;-1.10;99.90
34099;DHT22;20374;49.474;10.944;2024-01-11T15:55:52;-1.20;99.90
34099;DHT22;20374;49.474;10.944;2024-01-11T15:58:17;-1.30;99.90
34099;DHT22;20374;49.474;10.944;2024-01-11T16:00:43;-1.40;99.90
34099;DHT22;20374;49.474;10.944;2024-01-11T16:03:09;-1.40;99.90